Time;durP1;ratioP1;P1;durP2;ratioP2;P2;SDS_P1;SDS_P2;PMS_P1;PMS_P2;Temp;Humidity;BMP_temperature;BMP_pressure;BME280_temperature;BME280_humidity;BME280_pressure;Samples;Min_cycle;Max_cycle;Signal;HPM_P1;HPM_P2
2022/05/27 00:03:26;;;;;;;3.65;2.70;;;;;;;;;;10453849;28;20045;-78
2022/05/27 00:08:26;;;;;;;4.27;2.90;;;;;;;;;;10465254;28;20526;-78
2022/05/27 00:13:27;;;;;;;3.77;2.70;;;;;;;;;;10471017;28;20131;-76
2022/05/27 00:18:27;;;;;;;3.20;2.90;;;;;;;;;;10468886;28;20086;-80
2022/05/27 00:23:28;;;;;;;5.53;2.87;;;;;;;;;;10493887;28;20067;-80
2022/05/27 00:28:29;;;;;;;4.72;3.08;;;;;;;;;;10479878;28;20341;-77
2022/05/27 00:33:29;;;;;;;3.63;2.65;;;;;;;;;;10455931;28;20064;-76
2022/05/27 00:38:30;;;;;;;4.10;2.87;;;;;;;;;;10451241;28;20070;-77
2022/05/27 00:43:30;;;;;;;4.78;3.20;;;;;;;;;;10479101;28;20150;-76
2022/05/27 00:48:32;;;;;;;4.30;3.00;;;;;;;;;;10490170;28;20040;-76
2022/05/27 00:53:39;;;;;;;4.00;2.60;;;;;;;;;;10464242;28;20278;-76
2022/05/27 00:58:43;;;;;;;4.97;3.42;;;;;;;;;;10449506;28;20059;-77
2022/05/27 01:03:43;;;;;;;5.55;3.80;;;;;;;;;;10482465;28;20535;-76
2022/05/27 01:08:45;;;;;;;6.53;4.97;;;;;;;;;;10459779;28;20081;-77
2022/05/27 01:14:04;;;;;;;6.60;5.00;;;;;;;;;;10429237;28;1105255;-77
2022/05/27 01:24:45;;;;;;;8.93;5.82;;;;;;;;;;10441601;28;20061;-77
2022/05/27 01:29:55;;;;;;;9.50;5.30;;;;;;;;;;10465970;28;20051;-76
2022/05/27 01:35:00;;;;;;;5.50;4.88;;;;;;;;;;10422114;28;20062;-78
2022/05/27 01:40:09;;;;;;;5.05;4.43;;;;;;;;;;10458777;28;20101;-78
2022/05/27 01:45:26;;;;;;;5.63;4.90;;;;;;;;;;10457692;28;20048;-77
2022/05/27 01:50:26;;;;;;;6.28;4.85;;;;;;;;;;10432771;28;20144;-78
2022/05/27 01:55:35;;;;;;;5.97;4.45;;;;;;;;;;10459354;28;20106;-76
2022/05/27 02:00:37;;;;;;;6.22;4.03;;;;;;;;;;10463672;28;20081;-76
2022/05/27 02:05:42;;;;;;;6.25;3.90;;;;;;;;;;10471343;28;20063;-76
2022/05/27 02:10:57;;;;;;;4.35;3.60;;;;;;;;;;10441514;28;20141;-77
2022/05/27 02:15:59;;;;;;;3.35;3.05;;;;;;;;;;10468246;28;20044;-77
2022/05/27 02:21:03;;;;;;;3.20;2.90;;;;;;;;;;10445889;28;20057;-77
2022/05/27 02:26:06;;;;;;;5.57;3.53;;;;;;;;;;10447684;28;20098;-76
2022/05/27 02:31:09;;;;;;;5.70;3.08;;;;;;;;;;10426586;28;20490;-78
2022/05/27 02:36:11;;;;;;;4.20;3.20;;;;;;;;;;10449569;28;20409;-78
2022/05/27 02:41:15;;;;;;;4.27;2.93;;;;;;;;;;10477040;28;20079;-78
2022/05/27 02:46:31;;;;;;;4.35;3.55;;;;;;;;;;10469028;28;20283;-79
2022/05/27 02:51:37;;;;;;;4.00;3.25;;;;;;;;;;10488529;28;20048;-81
2022/05/27 02:56:43;;;;;;;3.33;2.88;;;;;;;;;;10475746;28;20045;-79
2022/05/27 03:01:46;;;;;;;4.85;3.42;;;;;;;;;;10471217;28;20045;-77
2022/05/27 03:07:00;;;;;;;7.88;3.55;;;;;;;;;;10461570;28;20047;-78
2022/05/27 03:12:11;;;;;;;3.88;2.90;;;;;;;;;;10453979;28;20076;-78
2022/05/27 03:17:30;;;;;;;4.20;2.83;;;;;;;;;;10466939;28;20051;-76
2022/05/27 03:22:31;;;;;;;3.47;3.08;;;;;;;;;;10473661;28;20396;-78
2022/05/27 03:27:36;;;;;;;5.63;3.75;;;;;;;;;;10482235;28;20086;-77
2022/05/27 03:32:46;;;;;;;4.15;2.90;;;;;;;;;;10474364;28;20514;-77
2022/05/27 03:37:50;;;;;;;3.15;2.85;;;;;;;;;;10457481;28;20041;-79
2022/05/27 03:42:51;;;;;;;4.30;3.30;;;;;;;;;;10443329;28;20109;-78
2022/05/27 03:47:51;;;;;;;3.38;3.00;;;;;;;;;;10429831;28;20041;-77
2022/05/27 03:52:53;;;;;;;4.38;3.33;;;;;;;;;;10479769;28;20418;-78
2022/05/27 03:57:53;;;;;;;4.45;3.20;;;;;;;;;;10448477;28;20056;-77
2022/05/27 04:02:55;;;;;;;4.03;3.35;;;;;;;;;;10458644;28;20049;-77
2022/05/27 04:07:56;;;;;;;6.80;3.40;;;;;;;;;;10460228;28;20123;-76
2022/05/27 04:12:57;;;;;;;4.22;3.03;;;;;;;;;;10471617;28;20145;-75
2022/05/27 04:17:57;;;;;;;5.43;3.70;;;;;;;;;;10453487;28;20040;-75
2022/05/27 04:22:58;;;;;;;4.43;3.07;;;;;;;;;;10454157;28;20056;-77
2022/05/27 04:27:58;;;;;;;6.03;3.63;;;;;;;;;;10453948;28;20087;-76
2022/05/27 04:32:58;;;;;;;4.68;3.13;;;;;;;;;;10462795;28;20090;-78
2022/05/27 04:37:59;;;;;;;7.43;3.50;;;;;;;;;;10471607;28;20089;-76
2022/05/27 04:43:01;;;;;;;7.20;3.77;;;;;;;;;;10482824;28;20568;-74
2022/05/27 04:48:02;;;;;;;5.78;3.65;;;;;;;;;;10473667;28;20093;-78
2022/05/27 04:53:04;;;;;;;3.75;3.35;;;;;;;;;;10474224;28;20064;-76
2022/05/27 04:58:05;;;;;;;4.93;2.97;;;;;;;;;;10476651;28;20056;-77
2022/05/27 05:03:05;;;;;;;4.25;2.88;;;;;;;;;;10478444;28;20048;-76
2022/05/27 05:08:08;;;;;;;5.25;3.00;;;;;;;;;;10465386;28;20045;-72
2022/05/27 05:13:08;;;;;;;5.53;3.42;;;;;;;;;;10470669;28;20106;-73
2022/05/27 05:18:08;;;;;;;5.20;3.20;;;;;;;;;;10474879;28;20087;-72
2022/05/27 05:23:09;;;;;;;4.47;3.23;;;;;;;;;;10449925;28;20048;-76
2022/05/27 05:28:09;;;;;;;5.87;3.30;;;;;;;;;;10448386;28;20045;-78
2022/05/27 05:33:09;;;;;;;3.33;2.97;;;;;;;;;;10480768;28;20270;-78
2022/05/27 05:38:10;;;;;;;3.37;2.50;;;;;;;;;;10478195;28;20421;-78
2022/05/27 05:43:10;;;;;;;4.87;3.30;;;;;;;;;;10478476;28;20066;-77
2022/05/27 05:48:10;;;;;;;3.78;3.10;;;;;;;;;;10482745;28;20037;-76
2022/05/27 05:53:11;;;;;;;4.10;2.90;;;;;;;;;;10493381;28;20059;-77
2022/05/27 05:58:11;;;;;;;4.72;3.20;;;;;;;;;;10474527;28;20284;-78
2022/05/27 06:03:11;;;;;;;4.43;3.35;;;;;;;;;;10465745;28;20059;-76
2022/05/27 06:08:12;;;;;;;4.67;3.23;;;;;;;;;;10455362;28;20119;-75
2022/05/27 06:13:12;;;;;;;8.40;4.80;;;;;;;;;;10450013;28;20059;-76
2022/05/27 06:18:13;;;;;;;7.20;4.20;;;;;;;;;;10463917;28;20830;-76
2022/05/27 06:23:14;;;;;;;5.28;3.72;;;;;;;;;;10435390;28;20072;-76
2022/05/27 06:38:52;;;;;;;5.97;3.88;;;;;;;;;;10457426;28;20412;-75
2022/05/27 06:43:52;;;;;;;5.93;4.07;;;;;;;;;;10394605;28;20060;-74
2022/05/27 06:48:53;;;;;;;7.78;3.70;;;;;;;;;;10475022;28;20390;-73
2022/05/27 06:53:53;;;;;;;14.27;8.73;;;;;;;;;;10482549;28;20051;-76
2022/05/27 06:58:54;;;;;;;5.70;4.00;;;;;;;;;;10479841;28;20283;-75
2022/05/27 07:03:54;;;;;;;7.32;4.38;;;;;;;;;;10477482;28;20135;-77
2022/05/27 07:08:54;;;;;;;6.80;4.27;;;;;;;;;;10463775;28;20055;-74
2022/05/27 07:13:54;;;;;;;6.03;3.88;;;;;;;;;;10451989;28;20054;-75
2022/05/27 07:18:55;;;;;;;6.13;3.90;;;;;;;;;;10460405;28;20094;-76
2022/05/27 07:23:56;;;;;;;5.03;4.03;;;;;;;;;;10466748;28;20043;-77
2022/05/27 07:28:58;;;;;;;5.18;3.65;;;;;;;;;;10460715;28;20801;-76
2022/05/27 07:33:59;;;;;;;4.30;3.63;;;;;;;;;;10436156;28;20037;-74
2022/05/27 07:38:59;;;;;;;7.47;3.27;;;;;;;;;;10449010;28;20479;-74
2022/05/27 07:44:01;;;;;;;4.13;3.42;;;;;;;;;;10471672;28;20060;-75
2022/05/27 07:49:04;;;;;;;6.15;3.55;;;;;;;;;;10483332;28;20345;-76
2022/05/27 07:54:04;;;;;;;;;;;;;;;;;;10467649;28;20512;-77
2022/05/27 07:59:04;;;;;;;5.43;3.65;;;;;;;;;;10466039;28;19944;-76
2022/05/27 08:04:05;;;;;;;17.77;5.10;;;;;;;;;;10446990;28;20106;-76
2022/05/27 08:09:05;;;;;;;8.70;3.50;;;;;;;;;;10460118;28;20115;-79
2022/05/27 08:14:06;;;;;;;4.50;3.13;;;;;;;;;;10475786;28;20068;-76
2022/05/27 08:19:07;;;;;;;4.00;3.30;;;;;;;;;;10472304;28;20041;-79
2022/05/27 08:24:10;;;;;;;4.28;3.10;;;;;;;;;;10457391;28;20037;-76
2022/05/27 08:29:11;;;;;;;4.72;3.38;;;;;;;;;;10469715;28;20056;-76
2022/05/27 08:39:30;;;;;;;4.05;3.40;;;;;;;;;;10471352;28;20048;-76
2022/05/27 08:44:37;;;;;;;9.47;7.00;;;;;;;;;;10448125;28;20079;-76
2022/05/27 08:49:39;;;;;;;5.35;3.33;;;;;;;;;;10450146;28;20047;-76
2022/05/27 08:54:55;;;;;;;4.45;3.25;;;;;;;;;;10484285;28;20040;-75
2022/05/27 09:00:04;;;;;;;4.03;3.63;;;;;;;;;;10473631;28;20468;-77
2022/05/27 09:05:14;;;;;;;5.30;3.80;;;;;;;;;;10465804;28;20075;-72
2022/05/27 09:10:17;;;;;;;5.63;3.95;;;;;;;;;;10473140;28;20037;-75
2022/05/27 09:15:36;;;;;;;4.47;3.78;;;;;;;;;;10466459;28;20045;-74
2022/05/27 09:20:37;;;;;;;7.28;4.30;;;;;;;;;;10467288;28;20091;-76
2022/05/27 09:25:54;;;;;;;5.65;3.83;;;;;;;;;;10473402;28;20543;-76
2022/05/27 09:30:57;;;;;;;3.85;3.45;;;;;;;;;;10471482;28;20470;-74
2022/05/27 09:36:13;;;;;;;11.63;5.05;;;;;;;;;;10454527;28;20601;-76
2022/05/27 09:41:28;;;;;;;8.88;5.97;;;;;;;;;;10481018;28;20044;-75
2022/05/27 09:46:30;;;;;;;6.22;4.22;;;;;;;;;;10471963;28;20403;-75
2022/05/27 09:51:32;;;;;;;6.10;4.00;;;;;;;;;;10471018;28;20040;-77
2022/05/27 09:56:41;;;;;;;5.45;3.97;;;;;;;;;;10477405;28;20051;-74
2022/05/27 10:01:42;;;;;;;4.82;3.63;;;;;;;;;;10463509;28;20781;-75
2022/05/27 10:06:43;;;;;;;4.97;3.10;;;;;;;;;;10450803;28;20056;-75
2022/05/27 10:11:46;;;;;;;5.00;3.50;;;;;;;;;;10418294;28;20711;-73
2022/05/27 10:17:09;;;;;;;3.63;3.22;;;;;;;;;;10468673;28;20041;-72
2022/05/27 10:22:20;;;;;;;4.68;3.20;;;;;;;;;;10460645;28;20158;-72
2022/05/27 10:27:20;;;;;;;4.38;3.60;;;;;;;;;;10468587;28;20037;-75
2022/05/27 10:32:32;;;;;;;7.43;4.63;;;;;;;;;;10469966;28;20535;-73
2022/05/27 10:37:33;;;;;;;4.38;3.95;;;;;;;;;;10464498;28;20048;-73
2022/05/27 10:42:49;;;;;;;5.97;4.18;;;;;;;;;;10467740;28;20049;-75
2022/05/27 10:48:08;;;;;;;6.25;4.50;;;;;;;;;;10456543;28;20099;-75
2022/05/27 10:53:24;;;;;;;5.38;4.35;;;;;;;;;;10458289;28;20051;-75
2022/05/27 11:04:03;;;;;;;6.43;5.35;;;;;;;;;;10443280;28;20102;-72
2022/05/27 11:09:17;;;;;;;6.45;4.93;;;;;;;;;;10464784;28;20055;-74
2022/05/27 11:19:51;;;;;;;9.13;6.47;;;;;;;;;;10469589;28;20516;-73
2022/05/27 11:25:00;;;;;;;7.80;5.60;;;;;;;;;;10458294;28;20804;-74
2022/05/27 11:30:07;;;;;;;8.20;6.10;;;;;;;;;;10460699;28;20040;-72
2022/05/27 11:35:18;;;;;;;8.90;6.80;;;;;;;;;;10447557;28;20048;-73
2022/05/27 11:40:24;;;;;;;7.40;6.13;;;;;;;;;;10445880;28;20074;-73
2022/05/27 11:45:29;;;;;;;6.97;6.25;;;;;;;;;;10450803;28;20048;-74
2022/05/27 11:50:30;;;;;;;7.65;6.15;;;;;;;;;;10463798;28;20690;-72
2022/05/27 11:56:05;;;;;;;8.18;5.90;;;;;;;;;;10452459;28;20055;-71
2022/05/27 12:01:11;;;;;;;9.40;6.50;;;;;;;;;;10353011;28;20055;-72
2022/05/27 12:06:15;;;;;;;9.88;7.05;;;;;;;;;;10473350;28;20049;-74
2022/05/27 12:11:21;;;;;;;9.43;7.88;;;;;;;;;;10471340;28;20041;-75
2022/05/27 12:16:26;;;;;;;9.57;8.13;;;;;;;;;;10457793;28;20048;-74
2022/05/27 12:21:28;;;;;;;10.95;8.23;;;;;;;;;;10477035;28;20470;-72
2022/05/27 12:26:31;;;;;;;9.50;7.63;;;;;;;;;;10469673;28;20063;-75
2022/05/27 12:31:32;;;;;;;8.52;6.50;;;;;;;;;;10473957;28;20275;-74
2022/05/27 12:36:33;;;;;;;6.50;5.90;;;;;;;;;;10467461;28;20585;-73
2022/05/27 12:41:33;;;;;;;6.95;6.05;;;;;;;;;;10469018;28;20066;-75
2022/05/27 12:46:44;;;;;;;7.63;5.82;;;;;;;;;;10484117;28;20041;-74
2022/05/27 12:51:45;;;;;;;5.63;4.65;;;;;;;;;;10441955;28;20072;-75
2022/05/27 13:02:13;;;;;;;4.93;4.13;;;;;;;;;;10459975;28;20451;-72
2022/05/27 13:07:15;;;;;;;5.05;4.20;;;;;;;;;;10459098;28;20041;-72
2022/05/27 13:12:34;;;;;;;12.68;8.88;;;;;;;;;;10462394;28;20048;-75
2022/05/27 13:17:38;;;;;;;8.25;4.53;;;;;;;;;;10466656;28;20123;-77
2022/05/27 13:22:59;;;;;;;4.43;3.78;;;;;;;;;;10462939;28;20193;-75
2022/05/27 13:28:03;;;;;;;3.80;3.50;;;;;;;;;;10461788;28;20090;-77
2022/05/27 13:33:07;;;;;;;5.10;3.30;;;;;;;;;;10478151;28;20089;-77
2022/05/27 13:38:15;;;;;;;6.55;2.70;;;;;;;;;;10487819;28;20049;-78
2022/05/27 13:43:17;;;;;;;4.75;3.08;;;;;;;;;;10494082;28;20051;-79
2022/05/27 13:48:41;;;;;;;4.50;2.97;;;;;;;;;;10493417;28;20088;-78
2022/05/27 13:53:43;;;;;;;;;;;;;;;;;;10503271;28;20028;-79
2022/05/27 13:58:55;;;;;;;3.55;2.88;;;;;;;;;;10483684;28;19912;-77
2022/05/27 14:04:18;;;;;;;4.07;3.45;;;;;;;;;;10456022;28;20056;-78
2022/05/27 14:09:18;;;;;;;;;;;;;;;;;;10409305;28;20487;-79
2022/05/27 14:14:26;;;;;;;3.65;3.20;;;;;;;;;;10474964;28;20007;-80
2022/05/27 14:19:27;;;;;;;9.77;8.02;;;;;;;;;;10454974;28;20357;-80
2022/05/27 14:24:31;;;;;;;36.13;32.45;;;;;;;;;;10461701;28;20055;-76
2022/05/27 14:29:32;;;;;;;44.47;35.60;;;;;;;;;;10438436;28;20041;-76
2022/05/27 14:34:33;;;;;;;129.90;83.13;;;;;;;;;;10434084;28;20040;-78
2022/05/27 14:39:33;;;;;;;3.55;2.85;;;;;;;;;;10460927;28;20075;-76
2022/05/27 14:44:41;;;;;;;4.20;2.70;;;;;;;;;;10442406;28;20054;-74
2022/05/27 14:49:50;;;;;;;2.30;2.05;;;;;;;;;;10454690;28;20131;-75
2022/05/27 14:54:52;;;;;;;2.08;1.80;;;;;;;;;;10476471;28;20063;-73
2022/05/27 14:59:58;;;;;;;3.88;2.15;;;;;;;;;;10464988;28;20048;-76
2022/05/27 15:05:01;;;;;;;2.70;2.08;;;;;;;;;;10478691;28;20052;-76
2022/05/27 15:10:03;;;;;;;4.57;3.38;;;;;;;;;;10461225;28;20060;-77
2022/05/27 15:15:03;;;;;;;5.07;4.05;;;;;;;;;;10466108;28;20392;-76
2022/05/27 15:20:06;;;;;;;8.05;4.88;;;;;;;;;;10440299;28;20048;-77
2022/05/27 15:25:09;;;;;;;9.52;5.28;;;;;;;;;;10485824;28;20128;-80
2022/05/27 15:35:33;;;;;;;5.00;3.67;;;;;;;;;;10482081;28;19916;-80
2022/05/27 15:40:37;;;;;;;6.93;4.68;;;;;;;;;;10498793;28;20052;-78
2022/05/27 15:45:37;;;;;;;5.68;4.10;;;;;;;;;;10512624;28;20067;-80
2022/05/27 15:50:38;;;;;;;6.25;4.03;;;;;;;;;;10484005;28;20096;-81
2022/05/27 15:55:39;;;;;;;5.00;4.00;;;;;;;;;;10520081;28;20036;-84
2022/05/27 16:00:40;;;;;;;13.18;8.15;;;;;;;;;;10498053;28;20057;-84
2022/05/27 16:05:41;;;;;;;4.50;3.40;;;;;;;;;;10497163;28;20067;-81
2022/05/27 16:10:42;;;;;;;6.43;3.50;;;;;;;;;;10500387;28;20101;-80
2022/05/27 16:17:50;;;;;;;3.50;2.95;;;;;;;;;;10500552;28;20135;-80
2022/05/27 16:21:02;;;;;;;3.22;2.80;;;;;;;;;;10492591;28;20069;-81
2022/05/27 16:26:03;;;;;;;3.55;2.90;;;;;;;;;;10489687;28;20036;-83
2022/05/27 16:31:04;;;;;;;3.58;2.55;;;;;;;;;;10438693;28;20139;-83
2022/05/27 16:36:04;;;;;;;4.32;3.35;;;;;;;;;;10481006;28;20132;-78
2022/05/27 16:41:05;;;;;;;4.32;3.08;;;;;;;;;;10491287;28;20479;-82
2022/05/27 16:46:09;;;;;;;4.20;3.00;;;;;;;;;;10500625;28;20066;-84
2022/05/27 16:51:09;;;;;;;3.75;3.33;;;;;;;;;;10502226;28;20040;-82
2022/05/27 16:56:43;;;;;;;4.18;3.45;;;;;;;;;;10484242;28;20135;-80
2022/05/27 17:01:45;;;;;;;4.20;3.00;;;;;;;;;;10435898;28;20175;-79
2022/05/27 17:06:45;;;;;;;5.72;3.83;;;;;;;;;;10491379;28;20104;-87
2022/05/27 17:11:46;;;;;;;4.20;3.00;;;;;;;;;;10491965;28;20191;-85
2022/05/27 17:16:55;;;;;;;3.75;3.03;;;;;;;;;;10473340;28;20041;-85
2022/05/27 17:21:55;;;;;;;14.73;9.18;;;;;;;;;;10480554;28;20048;-82
2022/05/27 17:26:56;;;;;;;4.53;3.50;;;;;;;;;;10435973;28;20428;-81
2022/05/27 17:31:58;;;;;;;4.95;3.40;;;;;;;;;;10447774;28;20770;-82
2022/05/27 17:36:59;;;;;;;5.40;3.63;;;;;;;;;;10443236;28;20044;-81
2022/05/27 17:41:59;;;;;;;4.97;3.53;;;;;;;;;;10481782;28;20032;-83
2022/05/27 17:52:21;;;;;;;5.60;4.20;;;;;;;;;;10476886;28;20060;-83
2022/05/27 17:57:23;;;;;;;4.70;4.00;;;;;;;;;;10485907;28;20045;-84
2022/05/27 18:02:23;;;;;;;6.55;4.28;;;;;;;;;;10464459;28;20441;-78
2022/05/27 18:07:24;;;;;;;6.50;4.03;;;;;;;;;;10489531;28;20098;-85
2022/05/27 18:12:25;;;;;;;5.45;4.13;;;;;;;;;;10473680;28;20388;-87
2022/05/27 18:17:25;;;;;;;5.85;4.45;;;;;;;;;;10500465;28;20024;-89
2022/05/27 18:22:29;;;;;;;4.35;3.08;;;;;;;;;;10482011;28;20037;-84
2022/05/27 18:27:30;;;;;;;5.43;3.97;;;;;;;;;;10491052;28;20061;-80
2022/05/27 18:32:31;;;;;;;5.68;3.53;;;;;;;;;;10460519;28;20085;-81
2022/05/27 18:37:31;;;;;;;6.82;5.18;;;;;;;;;;10469568;28;20044;-82
2022/05/27 18:42:31;;;;;;;5.10;3.60;;;;;;;;;;10461826;28;20141;-83
2022/05/27 18:47:34;;;;;;;4.47;3.30;;;;;;;;;;10481488;28;20068;-86
2022/05/27 18:52:36;;;;;;;3.10;2.80;;;;;;;;;;10501914;28;20049;-87
2022/05/27 18:57:36;;;;;;;5.18;4.35;;;;;;;;;;10504322;28;20025;-83
2022/05/27 19:02:39;;;;;;;4.57;3.03;;;;;;;;;;10490798;28;20492;-81
2022/05/27 19:07:48;;;;;;;5.88;4.00;;;;;;;;;;10487476;28;20029;-85
2022/05/27 19:12:56;;;;;;;4.50;3.40;;;;;;;;;;10489984;28;20029;-85
2022/05/27 19:17:59;;;;;;;5.37;4.23;;;;;;;;;;10476872;28;20036;-82
2022/05/27 19:23:00;;;;;;;5.22;3.95;;;;;;;;;;10465447;28;20100;-85
2022/05/27 19:28:01;;;;;;;4.10;3.45;;;;;;;;;;10473601;28;20153;-82
2022/05/27 19:33:09;;;;;;;5.95;4.05;;;;;;;;;;10449715;28;20086;-81
2022/05/27 19:38:13;;;;;;;5.55;3.97;;;;;;;;;;10378059;28;20151;-82
2022/05/27 19:43:43;;;;;;;4.88;4.10;;;;;;;;;;10415550;28;20452;-83
2022/05/27 19:49:03;;;;;;;;;;;;;;;;;;;;;
2022/05/27 19:54:49;;;;;;;6.03;4.32;;;;;;;;;;10337636;28;20085;-83
2022/05/27 19:59:54;;;;;;;6.20;4.13;;;;;;;;;;10370474;28;20376;-78
2022/05/27 20:04:54;;;;;;;4.32;3.78;;;;;;;;;;10394287;28;20514;-82
2022/05/27 20:09:55;;;;;;;6.50;3.97;;;;;;;;;;10432916;28;20076;-78
2022/05/27 20:14:58;;;;;;;5.30;3.95;;;;;;;;;;10467335;28;20291;-80
2022/05/27 20:20:00;;;;;;;5.10;4.50;;;;;;;;;;10478871;28;20060;-79
2022/05/27 20:25:01;;;;;;;5.63;4.90;;;;;;;;;;10467772;28;20059;-76
2022/05/27 20:30:02;;;;;;;5.47;4.57;;;;;;;;;;10466108;28;20064;-78
2022/05/27 20:35:03;;;;;;;4.57;4.07;;;;;;;;;;10449447;28;20139;-82
2022/05/27 20:40:04;;;;;;;5.97;4.13;;;;;;;;;;10472021;28;20458;-78
2022/05/27 20:45:06;;;;;;;7.68;5.40;;;;;;;;;;10449494;28;20057;-81
2022/05/27 20:50:07;;;;;;;6.82;4.70;;;;;;;;;;10461415;28;20132;-78
2022/05/27 20:55:07;;;;;;;5.85;4.93;;;;;;;;;;10457468;28;20128;-78
2022/05/27 21:00:08;;;;;;;6.88;4.82;;;;;;;;;;10480806;28;20044;-78
2022/05/27 21:05:08;;;;;;;5.90;4.85;;;;;;;;;;10461404;28;20043;-78
2022/05/27 21:10:11;;;;;;;6.88;4.65;;;;;;;;;;10470249;28;20140;-77
2022/05/27 21:15:12;;;;;;;7.87;5.03;;;;;;;;;;10484038;28;20067;-82
2022/05/27 21:20:12;;;;;;;5.68;4.20;;;;;;;;;;10449235;28;20146;-79
2022/05/27 21:25:13;;;;;;;5.80;4.38;;;;;;;;;;10454517;28;20528;-80
2022/05/27 21:30:13;;;;;;;4.13;3.72;;;;;;;;;;10472314;28;20040;-80
2022/05/27 21:35:17;;;;;;;4.93;4.30;;;;;;;;;;10467453;28;20144;-79
2022/05/27 21:40:17;;;;;;;5.05;4.40;;;;;;;;;;10479778;28;20490;-80
2022/05/27 21:45:18;;;;;;;4.35;3.83;;;;;;;;;;10447385;28;20044;-78
2022/05/27 21:50:20;;;;;;;4.30;3.87;;;;;;;;;;10455152;28;20044;-79
2022/05/27 21:55:21;;;;;;;6.65;4.13;;;;;;;;;;10464490;28;20378;-77
2022/05/27 22:00:22;;;;;;;5.88;3.97;;;;;;;;;;10474961;28;20096;-76
2022/05/27 22:05:22;;;;;;;6.40;4.15;;;;;;;;;;10435483;28;20430;-81
2022/05/27 22:15:48;;;;;;;4.80;3.67;;;;;;;;;;10471521;28;20120;-78
2022/05/27 22:20:48;;;;;;;5.53;3.72;;;;;;;;;;10466919;28;20060;-78
2022/05/27 22:25:48;;;;;;;6.68;4.05;;;;;;;;;;10442022;28;20040;-77
2022/05/27 22:30:49;;;;;;;5.95;3.80;;;;;;;;;;10463432;28;20044;-80
2022/05/27 22:35:51;;;;;;;3.42;3.10;;;;;;;;;;10471347;28;20041;-80
2022/05/27 22:40:53;;;;;;;3.97;3.03;;;;;;;;;;10460757;28;20103;-79
2022/05/27 22:45:53;;;;;;;4.68;3.35;;;;;;;;;;10457264;28;20044;-80
2022/05/27 22:50:55;;;;;;;3.72;3.00;;;;;;;;;;10470030;28;20459;-77
2022/05/27 22:55:55;;;;;;;6.13;3.25;;;;;;;;;;10467988;28;20044;-79
2022/05/27 23:00:55;;;;;;;6.20;3.38;;;;;;;;;;10443653;28;20048;-80
2022/05/27 23:05:58;;;;;;;5.23;3.57;;;;;;;;;;10442988;28;20048;-78
2022/05/27 23:11:01;;;;;;;8.77;3.97;;;;;;;;;;10471574;28;20041;-78
2022/05/27 23:21:34;;;;;;;6.28;4.10;;;;;;;;;;10437264;28;20052;-77
2022/05/27 23:26:34;;;;;;;5.88;3.92;;;;;;;;;;10487218;28;20070;-76
2022/05/27 23:31:35;;;;;;;4.93;3.50;;;;;;;;;;10457980;28;20463;-78
2022/05/27 23:36:35;;;;;;;6.57;3.70;;;;;;;;;;10478872;28;20331;-76
2022/05/27 23:41:38;;;;;;;5.05;3.40;;;;;;;;;;10467280;28;20500;-77
2022/05/27 23:46:39;;;;;;;5.55;3.60;;;;;;;;;;10451030;28;20052;-77
2022/05/27 23:51:39;;;;;;;6.55;4.20;;;;;;;;;;10449437;28;20045;-77
2022/05/27 23:56:39;;;;;;;7.87;4.43;;;;;;;;;;10467861;28;20052;-76
